sensor_id;sensor_type;location;lat;lon;timestamp;temperature;humidity
58554;DHT22;48119;53.218;6.576;2024-01-30T00:01:55;10.60;99.90
58554;DHT22;48119;53.218;6.576;2024-01-30T00:04:21;10.50;99.90
58554;DHT22;48119;53.218;6.576;2024-01-30T00:06:47;10.50;99.90
58554;DHT22;48119;53.218;6.576;2024-01-30T00:09:13;10.50;99.90
58554;DHT22;48119;53.218;6.576;2024-01-30T00:11:39;10.50;99.90
58554;DHT22;48119;53.218;6.576;2024-01-30T00:14:05;10.50;99.90
58554;DHT22;48119;53.218;6.576;2024-01-30T00:16:31;10.50;99.90
58554;DHT22;48119;53.218;6.576;2024-01-30T00:18:57;10.50;99.90
58554;DHT22;48119;53.218;6.576;2024-01-30T00:21:23;10.50;99.90
58554;DHT22;48119;53.218;6.576;2024-01-30T00:23:49;10.50;99.90
58554;DHT22;48119;53.218;6.576;2024-01-30T00:26:15;10.50;99.90
58554;DHT22;48119;53.218;6.576;2024-01-30T00:28:42;10.50;99.90
58554;DHT22;48119;53.218;6.576;2024-01-30T00:31:08;10.40;99.90
58554;DHT22;48119;53.218;6.576;2024-01-30T00:33:38;10.50;99.90
58554;DHT22;48119;53.218;6.576;2024-01-30T00:36:04;10.50;99.90
58554;DHT22;48119;53.218;6.576;2024-01-30T00:38:30;10.50;99.90
58554;DHT22;48119;53.218;6.576;2024-01-30T00:40:56;10.50;99.90
58554;DHT22;48119;53.218;6.576;2024-01-30T00:43:21;10.50;99.90
58554;DHT22;48119;53.218;6.576;2024-01-30T00:45:47;10.50;99.90
58554;DHT22;48119;53.218;6.576;2024-01-30T00:48:13;10.50;99.90
58554;DHT22;48119;53.218;6.576;2024-01-30T00:50:39;10.40;99.90
58554;DHT22;48119;53.218;6.576;2024-01-30T00:53:05;10.40;99.90
58554;DHT22;48119;53.218;6.576;2024-01-30T00:55:30;10.50;99.90
58554;DHT22;48119;53.218;6.576;2024-01-30T00:57:56;10.40;99.90
58554;DHT22;48119;53.218;6.576;2024-01-30T01:00:22;10.50;99.90
58554;DHT22;48119;53.218;6.576;2024-01-30T01:02:57;10.40;99.90
58554;DHT22;48119;53.218;6.576;2024-01-30T01:05:23;10.40;99.90
58554;DHT22;48119;53.218;6.576;2024-01-30T01:07:49;10.40;99.90
58554;DHT22;48119;53.218;6.576;2024-01-30T01:10:18;10.50;99.90
58554;DHT22;48119;53.218;6.576;2024-01-30T01:12:45;10.50;99.90
58554;DHT22;48119;53.218;6.576;2024-01-30T01:15:11;10.50;99.90
58554;DHT22;48119;53.218;6.576;2024-01-30T01:17:38;10.40;99.90
58554;DHT22;48119;53.218;6.576;2024-01-30T01:20:05;10.40;99.90
58554;DHT22;48119;53.218;6.576;2024-01-30T01:22:32;10.40;99.90
58554;DHT22;48119;53.218;6.576;2024-01-30T01:24:58;10.40;99.90
58554;DHT22;48119;53.218;6.576;2024-01-30T01:27:24;10.40;99.90
58554;DHT22;48119;53.218;6.576;2024-01-30T01:29:53;10.40;99.90
58554;DHT22;48119;53.218;6.576;2024-01-30T01:32:19;10.40;99.90
58554;DHT22;48119;53.218;6.576;2024-01-30T01:34:45;10.40;99.90
58554;DHT22;48119;53.218;6.576;2024-01-30T01:37:11;10.40;99.90
58554;DHT22;48119;53.218;6.576;2024-01-30T01:39:36;10.40;99.90
58554;DHT22;48119;53.218;6.576;2024-01-30T01:42:02;10.40;99.90
58554;DHT22;48119;53.218;6.576;2024-01-30T01:44:28;10.40;99.90
58554;DHT22;48119;53.218;6.576;2024-01-30T01:46:55;10.40;99.90
58554;DHT22;48119;53.218;6.576;2024-01-30T01:49:22;10.40;99.90
58554;DHT22;48119;53.218;6.576;2024-01-30T01:51:50;10.40;99.90
58554;DHT22;48119;53.218;6.576;2024-01-30T01:54:17;10.40;99.90
58554;DHT22;48119;53.218;6.576;2024-01-30T01:56:43;10.40;99.90
58554;DHT22;48119;53.218;6.576;2024-01-30T01:59:09;10.40;99.90
58554;DHT22;48119;53.218;6.576;2024-01-30T02:01:38;10.40;99.90
58554;DHT22;48119;53.218;6.576;2024-01-30T02:04:04;10.40;99.90
58554;DHT22;48119;53.218;6.576;2024-01-30T02:06:31;10.30;99.90
58554;DHT22;48119;53.218;6.576;2024-01-30T02:08:57;10.30;99.90
58554;DHT22;48119;53.218;6.576;2024-01-30T02:11:23;10.30;99.90
58554;DHT22;48119;53.218;6.576;2024-01-30T02:13:50;10.30;99.90
58554;DHT22;48119;53.218;6.576;2024-01-30T02:16:16;10.30;99.90
58554;DHT22;48119;53.218;6.576;2024-01-30T02:18:43;10.30;99.90
58554;DHT22;48119;53.218;6.576;2024-01-30T02:21:12;10.30;99.90
58554;DHT22;48119;53.218;6.576;2024-01-30T02:23:39;10.30;99.90
58554;DHT22;48119;53.218;6.576;2024-01-30T02:26:06;10.30;99.90
58554;DHT22;48119;53.218;6.576;2024-01-30T02:28:32;10.30;99.90
58554;DHT22;48119;53.218;6.576;2024-01-30T02:30:58;10.30;99.90
58554;DHT22;48119;53.218;6.576;2024-01-30T02:33:23;10.30;99.90
58554;DHT22;48119;53.218;6.576;2024-01-30T02:35:49;10.30;99.90
58554;DHT22;48119;53.218;6.576;2024-01-30T02:38:18;10.30;99.90
58554;DHT22;48119;53.218;6.576;2024-01-30T02:40:44;10.30;99.90
58554;DHT22;48119;53.218;6.576;2024-01-30T02:43:09;10.40;99.90
58554;DHT22;48119;53.218;6.576;2024-01-30T02:45:35;10.40;99.90
58554;DHT22;48119;53.218;6.576;2024-01-30T02:48:01;10.40;99.90
58554;DHT22;48119;53.218;6.576;2024-01-30T02:50:27;10.30;99.90
58554;DHT22;48119;53.218;6.576;2024-01-30T02:52:53;10.40;99.90
58554;DHT22;48119;53.218;6.576;2024-01-30T02:55:18;10.40;99.90
58554;DHT22;48119;53.218;6.576;2024-01-30T02:57:45;10.30;99.90
58554;DHT22;48119;53.218;6.576;2024-01-30T03:00:11;10.30;99.90
58554;DHT22;48119;53.218;6.576;2024-01-30T03:02:37;10.40;99.90
58554;DHT22;48119;53.218;6.576;2024-01-30T03:05:03;10.40;99.90
58554;DHT22;48119;53.218;6.576;2024-01-30T03:07:31;10.30;99.90
58554;DHT22;48119;53.218;6.576;2024-01-30T03:09:57;10.40;99.90
58554;DHT22;48119;53.218;6.576;2024-01-30T03:12:23;10.30;99.90
58554;DHT22;48119;53.218;6.576;2024-01-30T03:14:48;10.40;99.90
58554;DHT22;48119;53.218;6.576;2024-01-30T03:17:15;10.40;99.90
58554;DHT22;48119;53.218;6.576;2024-01-30T03:19:40;10.40;99.90
58554;DHT22;48119;53.218;6.576;2024-01-30T03:22:06;10.30;99.90
58554;DHT22;48119;53.218;6.576;2024-01-30T03:24:32;10.40;99.90
58554;DHT22;48119;53.218;6.576;2024-01-30T03:26:58;10.30;99.90
58554;DHT22;48119;53.218;6.576;2024-01-30T03:29:24;10.30;99.90
58554;DHT22;48119;53.218;6.576;2024-01-30T03:31:50;10.30;99.90
58554;DHT22;48119;53.218;6.576;2024-01-30T03:34:15;10.40;99.90
58554;DHT22;48119;53.218;6.576;2024-01-30T03:36:41;10.30;99.90
58554;DHT22;48119;53.218;6.576;2024-01-30T03:39:07;10.30;99.90
58554;DHT22;48119;53.218;6.576;2024-01-30T03:41:33;10.30;99.90
58554;DHT22;48119;53.218;6.576;2024-01-30T03:43:59;10.30;99.90
58554;DHT22;48119;53.218;6.576;2024-01-30T03:46:25;10.30;99.90
58554;DHT22;48119;53.218;6.576;2024-01-30T03:48:51;10.40;99.90
58554;DHT22;48119;53.218;6.576;2024-01-30T03:51:16;10.40;99.90
58554;DHT22;48119;53.218;6.576;2024-01-30T03:53:43;10.40;99.90
58554;DHT22;48119;53.218;6.576;2024-01-30T03:56:09;10.40;99.90
58554;DHT22;48119;53.218;6.576;2024-01-30T03:58:35;10.40;99.90
58554;DHT22;48119;53.218;6.576;2024-01-30T04:01:01;10.40;99.90
58554;DHT22;48119;53.218;6.576;2024-01-30T04:03:27;10.40;99.90
58554;DHT22;48119;53.218;6.576;2024-01-30T04:05:53;10.40;99.90
58554;DHT22;48119;53.218;6.576;2024-01-30T04:08:19;10.40;99.90
58554;DHT22;48119;53.218;6.576;2024-01-30T04:10:46;10.40;99.90
58554;DHT22;48119;53.218;6.576;2024-01-30T04:13:13;10.40;99.90
58554;DHT22;48119;53.218;6.576;2024-01-30T04:15:39;10.40;99.90
58554;DHT22;48119;53.218;6.576;2024-01-30T04:18:05;10.40;99.90
58554;DHT22;48119;53.218;6.576;2024-01-30T04:20:37;10.40;99.90
58554;DHT22;48119;53.218;6.576;2024-01-30T04:23:03;10.40;99.90
58554;DHT22;48119;53.218;6.576;2024-01-30T04:25:29;10.50;99.90
58554;DHT22;48119;53.218;6.576;2024-01-30T04:27:54;10.40;99.90
58554;DHT22;48119;53.218;6.576;2024-01-30T04:30:20;10.50;99.90
58554;DHT22;48119;53.218;6.576;2024-01-30T04:32:46;10.50;99.90
58554;DHT22;48119;53.218;6.576;2024-01-30T04:35:12;10.50;99.90
58554;DHT22;48119;53.218;6.576;2024-01-30T04:37:38;10.50;99.90
58554;DHT22;48119;53.218;6.576;2024-01-30T04:40:04;10.50;99.90
58554;DHT22;48119;53.218;6.576;2024-01-30T04:42:30;10.50;99.90
58554;DHT22;48119;53.218;6.576;2024-01-30T04:44:56;10.50;99.90
58554;DHT22;48119;53.218;6.576;2024-01-30T04:47:22;10.60;99.90
58554;DHT22;48119;53.218;6.576;2024-01-30T04:49:47;10.60;99.90
58554;DHT22;48119;53.218;6.576;2024-01-30T04:52:13;10.60;99.90
58554;DHT22;48119;53.218;6.576;2024-01-30T04:54:39;10.60;99.90
58554;DHT22;48119;53.218;6.576;2024-01-30T04:57:05;10.60;99.90
58554;DHT22;48119;53.218;6.576;2024-01-30T04:59:35;10.60;99.90
58554;DHT22;48119;53.218;6.576;2024-01-30T05:02:01;10.60;99.90
58554;DHT22;48119;53.218;6.576;2024-01-30T05:04:27;10.70;99.90
58554;DHT22;48119;53.218;6.576;2024-01-30T05:06:52;10.70;99.90
58554;DHT22;48119;53.218;6.576;2024-01-30T05:09:18;10.70;99.90
58554;DHT22;48119;53.218;6.576;2024-01-30T05:11:44;10.70;99.90
58554;DHT22;48119;53.218;6.576;2024-01-30T05:14:10;10.70;99.90
58554;DHT22;48119;53.218;6.576;2024-01-30T05:16:37;10.70;99.90
58554;DHT22;48119;53.218;6.576;2024-01-30T05:19:03;10.80;99.90
58554;DHT22;48119;53.218;6.576;2024-01-30T05:21:28;10.70;99.90
58554;DHT22;48119;53.218;6.576;2024-01-30T05:23:54;10.80;99.90
58554;DHT22;48119;53.218;6.576;2024-01-30T05:26:20;10.80;99.90
58554;DHT22;48119;53.218;6.576;2024-01-30T05:28:45;10.80;99.90
58554;DHT22;48119;53.218;6.576;2024-01-30T05:31:11;10.80;99.90
58554;DHT22;48119;53.218;6.576;2024-01-30T05:33:37;10.80;99.90
58554;DHT22;48119;53.218;6.576;2024-01-30T05:36:03;10.80;99.90
58554;DHT22;48119;53.218;6.576;2024-01-30T05:38:29;10.80;99.90
58554;DHT22;48119;53.218;6.576;2024-01-30T05:40:56;10.80;99.90
58554;DHT22;48119;53.218;6.576;2024-01-30T05:43:23;10.80;99.90
58554;DHT22;48119;53.218;6.576;2024-01-30T05:45:49;10.80;99.90
58554;DHT22;48119;53.218;6.576;2024-01-30T05:48:15;10.80;99.90
58554;DHT22;48119;53.218;6.576;2024-01-30T05:50:41;10.80;99.90
58554;DHT22;48119;53.218;6.576;2024-01-30T05:53:07;10.80;99.90
58554;DHT22;48119;53.218;6.576;2024-01-30T05:55:33;10.80;99.90
58554;DHT22;48119;53.218;6.576;2024-01-30T05:57:58;10.80;99.90
58554;DHT22;48119;53.218;6.576;2024-01-30T06:00:24;10.80;99.90
58554;DHT22;48119;53.218;6.576;2024-01-30T06:02:50;10.80;99.90
58554;DHT22;48119;53.218;6.576;2024-01-30T06:05:16;10.80;99.90
58554;DHT22;48119;53.218;6.576;2024-01-30T06:07:42;10.80;99.90
58554;DHT22;48119;53.218;6.576;2024-01-30T06:10:08;10.80;99.90
58554;DHT22;48119;53.218;6.576;2024-01-30T06:12:34;10.80;99.90
58554;DHT22;48119;53.218;6.576;2024-01-30T06:15:01;10.80;99.90
58554;DHT22;48119;53.218;6.576;2024-01-30T06:17:27;10.80;99.90
58554;DHT22;48119;53.218;6.576;2024-01-30T06:19:53;10.80;99.90
58554;DHT22;48119;53.218;6.576;2024-01-30T06:22:19;10.80;99.90
58554;DHT22;48119;53.218;6.576;2024-01-30T06:24:45;10.80;99.90
58554;DHT22;48119;53.218;6.576;2024-01-30T06:27:13;10.80;99.90
58554;DHT22;48119;53.218;6.576;2024-01-30T06:29:39;10.80;99.90
58554;DHT22;48119;53.218;6.576;2024-01-30T06:32:05;10.80;99.90
58554;DHT22;48119;53.218;6.576;2024-01-30T06:34:31;10.80;99.90
58554;DHT22;48119;53.218;6.576;2024-01-30T06:36:57;10.80;99.90
58554;DHT22;48119;53.218;6.576;2024-01-30T06:39:23;10.80;99.90
58554;DHT22;48119;53.218;6.576;2024-01-30T06:41:49;10.80;99.90
58554;DHT22;48119;53.218;6.576;2024-01-30T06:44:14;10.80;99.90
58554;DHT22;48119;53.218;6.576;2024-01-30T06:46:40;10.80;99.90
58554;DHT22;48119;53.218;6.576;2024-01-30T06:49:06;10.80;99.90
58554;DHT22;48119;53.218;6.576;2024-01-30T06:51:32;10.80;99.90
58554;DHT22;48119;53.218;6.576;2024-01-30T06:53:57;10.80;99.90
58554;DHT22;48119;53.218;6.576;2024-01-30T06:56:23;10.80;99.90
58554;DHT22;48119;53.218;6.576;2024-01-30T06:58:50;10.80;99.90
58554;DHT22;48119;53.218;6.576;2024-01-30T07:01:16;10.80;99.90
58554;DHT22;48119;53.218;6.576;2024-01-30T07:03:42;10.80;99.90
58554;DHT22;48119;53.218;6.576;2024-01-30T07:06:08;10.80;99.90
58554;DHT22;48119;53.218;6.576;2024-01-30T07:08:34;10.90;99.90
58554;DHT22;48119;53.218;6.576;2024-01-30T07:11:00;10.90;99.90
58554;DHT22;48119;53.218;6.576;2024-01-30T07:13:27;10.80;99.90
58554;DHT22;48119;53.218;6.576;2024-01-30T07:15:54;10.90;99.90
58554;DHT22;48119;53.218;6.576;2024-01-30T07:18:20;10.80;99.90
58554;DHT22;48119;53.218;6.576;2024-01-30T07:20:45;10.90;99.90
58554;DHT22;48119;53.218;6.576;2024-01-30T07:23:13;10.90;99.90
58554;DHT22;48119;53.218;6.576;2024-01-30T07:25:41;10.90;99.90
58554;DHT22;48119;53.218;6.576;2024-01-30T07:28:10;10.90;99.90
58554;DHT22;48119;53.218;6.576;2024-01-30T07:30:37;10.90;99.90
58554;DHT22;48119;53.218;6.576;2024-01-30T07:33:04;10.90;99.90
58554;DHT22;48119;53.218;6.576;2024-01-30T07:35:30;10.90;99.90
58554;DHT22;48119;53.218;6.576;2024-01-30T07:37:56;10.90;99.90
58554;DHT22;48119;53.218;6.576;2024-01-30T07:40:22;10.90;99.90
58554;DHT22;48119;53.218;6.576;2024-01-30T07:42:48;10.90;99.90
58554;DHT22;48119;53.218;6.576;2024-01-30T07:45:14;10.90;99.90
58554;DHT22;48119;53.218;6.576;2024-01-30T07:47:40;10.90;99.90
58554;DHT22;48119;53.218;6.576;2024-01-30T07:50:08;10.90;99.90
58554;DHT22;48119;53.218;6.576;2024-01-30T07:52:33;10.90;99.90
58554;DHT22;48119;53.218;6.576;2024-01-30T07:54:59;10.90;99.90
58554;DHT22;48119;53.218;6.576;2024-01-30T07:57:25;10.90;99.90
58554;DHT22;48119;53.218;6.576;2024-01-30T07:59:50;10.90;99.90
58554;DHT22;48119;53.218;6.576;2024-01-30T08:02:16;10.90;99.90
58554;DHT22;48119;53.218;6.576;2024-01-30T08:04:42;10.90;99.90
58554;DHT22;48119;53.218;6.576;2024-01-30T08:07:08;10.90;99.90
58554;DHT22;48119;53.218;6.576;2024-01-30T08:09:33;10.90;99.90
58554;DHT22;48119;53.218;6.576;2024-01-30T08:11:59;10.90;99.90
58554;DHT22;48119;53.218;6.576;2024-01-30T08:14:25;11.00;99.90
58554;DHT22;48119;53.218;6.576;2024-01-30T08:16:51;11.00;99.90
58554;DHT22;48119;53.218;6.576;2024-01-30T08:19:17;11.00;99.90
58554;DHT22;48119;53.218;6.576;2024-01-30T08:21:43;11.00;99.90
58554;DHT22;48119;53.218;6.576;2024-01-30T08:24:09;11.00;99.90
58554;DHT22;48119;53.218;6.576;2024-01-30T08:26:35;11.00;99.90
58554;DHT22;48119;53.218;6.576;2024-01-30T08:29:03;11.10;99.90
58554;DHT22;48119;53.218;6.576;2024-01-30T08:31:29;11.00;99.90
58554;DHT22;48119;53.218;6.576;2024-01-30T08:33:55;11.00;99.90
58554;DHT22;48119;53.218;6.576;2024-01-30T08:36:21;11.00;99.90
58554;DHT22;48119;53.218;6.576;2024-01-30T08:38:46;11.00;99.90
58554;DHT22;48119;53.218;6.576;2024-01-30T08:41:12;11.00;99.90
58554;DHT22;48119;53.218;6.576;2024-01-30T08:43:38;11.00;99.90
58554;DHT22;48119;53.218;6.576;2024-01-30T08:46:04;11.00;99.90
58554;DHT22;48119;53.218;6.576;2024-01-30T08:48:29;11.00;99.90
58554;DHT22;48119;53.218;6.576;2024-01-30T08:50:56;11.10;99.90
58554;DHT22;48119;53.218;6.576;2024-01-30T08:53:22;11.10;99.90
58554;DHT22;48119;53.218;6.576;2024-01-30T08:55:48;11.10;99.90
58554;DHT22;48119;53.218;6.576;2024-01-30T08:58:13;11.10;99.90
58554;DHT22;48119;53.218;6.576;2024-01-30T09:00:40;11.10;99.90
58554;DHT22;48119;53.218;6.576;2024-01-30T09:03:06;11.10;99.90
58554;DHT22;48119;53.218;6.576;2024-01-30T09:05:32;11.10;99.90
58554;DHT22;48119;53.218;6.576;2024-01-30T09:07:58;11.10;99.90
58554;DHT22;48119;53.218;6.576;2024-01-30T09:10:24;11.10;99.90
58554;DHT22;48119;53.218;6.576;2024-01-30T09:12:49;11.10;99.90
58554;DHT22;48119;53.218;6.576;2024-01-30T09:15:15;11.10;99.90
58554;DHT22;48119;53.218;6.576;2024-01-30T09:17:41;11.20;99.90
58554;DHT22;48119;53.218;6.576;2024-01-30T09:20:07;11.20;99.90
58554;DHT22;48119;53.218;6.576;2024-01-30T09:22:34;11.20;99.90
58554;DHT22;48119;53.218;6.576;2024-01-30T09:25:00;11.20;99.90
58554;DHT22;48119;53.218;6.576;2024-01-30T09:27:26;11.20;99.90
58554;DHT22;48119;53.218;6.576;2024-01-30T09:29:51;11.20;99.90
58554;DHT22;48119;53.218;6.576;2024-01-30T09:32:17;11.20;99.90
58554;DHT22;48119;53.218;6.576;2024-01-30T09:34:44;11.20;99.90
58554;DHT22;48119;53.218;6.576;2024-01-30T09:37:09;11.20;99.90
58554;DHT22;48119;53.218;6.576;2024-01-30T09:39:35;11.20;99.90
58554;DHT22;48119;53.218;6.576;2024-01-30T09:42:05;11.30;99.90
58554;DHT22;48119;53.218;6.576;2024-01-30T09:44:35;11.20;99.90
58554;DHT22;48119;53.218;6.576;2024-01-30T09:47:03;11.20;99.90
58554;DHT22;48119;53.218;6.576;2024-01-30T09:49:34;11.30;99.90
58554;DHT22;48119;53.218;6.576;2024-01-30T09:52:02;11.30;99.90
58554;DHT22;48119;53.218;6.576;2024-01-30T09:54:30;11.30;99.90
58554;DHT22;48119;53.218;6.576;2024-01-30T09:56:57;11.30;99.90
58554;DHT22;48119;53.218;6.576;2024-01-30T09:59:23;11.30;99.90
58554;DHT22;48119;53.218;6.576;2024-01-30T10:01:50;11.30;99.90
58554;DHT22;48119;53.218;6.576;2024-01-30T10:04:16;11.40;99.90
58554;DHT22;48119;53.218;6.576;2024-01-30T10:06:42;11.40;99.90
58554;DHT22;48119;53.218;6.576;2024-01-30T10:09:08;11.40;99.90
58554;DHT22;48119;53.218;6.576;2024-01-30T10:11:36;11.40;99.90
58554;DHT22;48119;53.218;6.576;2024-01-30T10:14:02;11.40;99.90
58554;DHT22;48119;53.218;6.576;2024-01-30T10:16:28;11.50;99.90
58554;DHT22;48119;53.218;6.576;2024-01-30T10:18:54;11.50;99.90
58554;DHT22;48119;53.218;6.576;2024-01-30T10:21:21;11.50;99.90
58554;DHT22;48119;53.218;6.576;2024-01-30T10:23:46;11.50;99.90
58554;DHT22;48119;53.218;6.576;2024-01-30T10:26:12;11.50;99.90
58554;DHT22;48119;53.218;6.576;2024-01-30T10:28:38;11.60;99.90
58554;DHT22;48119;53.218;6.576;2024-01-30T10:31:04;11.60;99.90
58554;DHT22;48119;53.218;6.576;2024-01-30T10:33:30;11.70;99.90
58554;DHT22;48119;53.218;6.576;2024-01-30T10:36:03;11.70;99.90
58554;DHT22;48119;53.218;6.576;2024-01-30T10:38:30;11.70;99.90
58554;DHT22;48119;53.218;6.576;2024-01-30T10:40:57;11.70;99.90
58554;DHT22;48119;53.218;6.576;2024-01-30T10:43:35;11.70;99.90
58554;DHT22;48119;53.218;6.576;2024-01-30T10:46:15;11.70;99.90
58554;DHT22;48119;53.218;6.576;2024-01-30T10:48:42;11.80;99.90
58554;DHT22;48119;53.218;6.576;2024-01-30T10:51:14;11.80;99.90
58554;DHT22;48119;53.218;6.576;2024-01-30T10:53:41;11.80;99.90
58554;DHT22;48119;53.218;6.576;2024-01-30T10:56:10;11.80;99.90
58554;DHT22;48119;53.218;6.576;2024-01-30T10:58:36;11.80;99.90
58554;DHT22;48119;53.218;6.576;2024-01-30T11:01:03;11.80;99.90
58554;DHT22;48119;53.218;6.576;2024-01-30T11:03:29;11.80;99.90
58554;DHT22;48119;53.218;6.576;2024-01-30T11:05:59;11.80;99.90
58554;DHT22;48119;53.218;6.576;2024-01-30T11:08:25;11.80;99.90
58554;DHT22;48119;53.218;6.576;2024-01-30T11:10:57;11.80;99.90
58554;DHT22;48119;53.218;6.576;2024-01-30T11:13:27;11.80;99.90
58554;DHT22;48119;53.218;6.576;2024-01-30T11:15:54;11.80;99.90
58554;DHT22;48119;53.218;6.576;2024-01-30T11:18:28;11.90;99.90
58554;DHT22;48119;53.218;6.576;2024-01-30T11:20:56;11.90;99.90
58554;DHT22;48119;53.218;6.576;2024-01-30T11:23:22;11.90;99.90
58554;DHT22;48119;53.218;6.576;2024-01-30T11:25:48;11.80;99.90
58554;DHT22;48119;53.218;6.576;2024-01-30T11:28:15;11.90;99.90
58554;DHT22;48119;53.218;6.576;2024-01-30T11:30:42;11.90;99.90
58554;DHT22;48119;53.218;6.576;2024-01-30T11:33:09;11.90;99.90
58554;DHT22;48119;53.218;6.576;2024-01-30T11:35:38;11.90;99.90
58554;DHT22;48119;53.218;6.576;2024-01-30T11:38:08;11.90;99.90
58554;DHT22;48119;53.218;6.576;2024-01-30T11:40:36;11.90;99.90
58554;DHT22;48119;53.218;6.576;2024-01-30T11:43:03;11.90;99.90
58554;DHT22;48119;53.218;6.576;2024-01-30T11:45:33;12.00;99.90
58554;DHT22;48119;53.218;6.576;2024-01-30T11:48:00;11.80;99.90
58554;DHT22;48119;53.218;6.576;2024-01-30T11:50:27;11.80;99.90
58554;DHT22;48119;53.218;6.576;2024-01-30T11:52:54;11.80;99.90
58554;DHT22;48119;53.218;6.576;2024-01-30T11:55:20;11.80;99.90
58554;DHT22;48119;53.218;6.576;2024-01-30T11:57:46;11.80;99.90
58554;DHT22;48119;53.218;6.576;2024-01-30T12:00:18;11.80;99.90
58554;DHT22;48119;53.218;6.576;2024-01-30T12:02:52;11.80;99.90
58554;DHT22;48119;53.218;6.576;2024-01-30T12:05:22;11.80;99.90
58554;DHT22;48119;53.218;6.576;2024-01-30T12:07:48;11.80;99.90
58554;DHT22;48119;53.218;6.576;2024-01-30T12:10:14;11.80;99.90
58554;DHT22;48119;53.218;6.576;2024-01-30T12:12:54;11.80;99.90
58554;DHT22;48119;53.218;6.576;2024-01-30T12:15:22;11.80;99.90
58554;DHT22;48119;53.218;6.576;2024-01-30T12:17:48;11.80;99.90
58554;DHT22;48119;53.218;6.576;2024-01-30T12:20:17;11.80;99.90
58554;DHT22;48119;53.218;6.576;2024-01-30T12:22:44;11.70;99.90
58554;DHT22;48119;53.218;6.576;2024-01-30T12:25:11;11.80;99.90
58554;DHT22;48119;53.218;6.576;2024-01-30T12:27:38;11.70;99.90
58554;DHT22;48119;53.218;6.576;2024-01-30T12:30:08;11.70;99.90
58554;DHT22;48119;53.218;6.576;2024-01-30T12:32:35;11.70;99.90
58554;DHT22;48119;53.218;6.576;2024-01-30T12:35:02;11.70;99.90
58554;DHT22;48119;53.218;6.576;2024-01-30T12:37:30;11.70;99.90
58554;DHT22;48119;53.218;6.576;2024-01-30T12:39:56;11.70;99.90
58554;DHT22;48119;53.218;6.576;2024-01-30T12:42:22;11.70;99.90
58554;DHT22;48119;53.218;6.576;2024-01-30T12:44:48;11.70;99.90
58554;DHT22;48119;53.218;6.576;2024-01-30T12:47:15;11.70;99.90
58554;DHT22;48119;53.218;6.576;2024-01-30T12:49:44;11.80;99.90
58554;DHT22;48119;53.218;6.576;2024-01-30T12:52:11;11.70;99.90
58554;DHT22;48119;53.218;6.576;2024-01-30T12:54:37;11.70;99.90
58554;DHT22;48119;53.218;6.576;2024-01-30T12:57:04;11.70;99.90
58554;DHT22;48119;53.218;6.576;2024-01-30T12:59:30;11.80;99.90
58554;DHT22;48119;53.218;6.576;2024-01-30T13:01:56;11.70;99.90
58554;DHT22;48119;53.218;6.576;2024-01-30T13:04:22;11.70;99.90
58554;DHT22;48119;53.218;6.576;2024-01-30T13:06:48;11.70;99.90
58554;DHT22;48119;53.218;6.576;2024-01-30T13:09:15;11.70;99.90
58554;DHT22;48119;53.218;6.576;2024-01-30T13:11:42;11.70;99.90
58554;DHT22;48119;53.218;6.576;2024-01-30T13:14:08;11.70;99.90
58554;DHT22;48119;53.218;6.576;2024-01-30T13:16:34;11.70;99.90
58554;DHT22;48119;53.218;6.576;2024-01-30T13:19:00;11.70;99.90
58554;DHT22;48119;53.218;6.576;2024-01-30T13:21:27;11.70;99.90
58554;DHT22;48119;53.218;6.576;2024-01-30T13:23:53;11.70;99.90
58554;DHT22;48119;53.218;6.576;2024-01-30T13:26:20;11.70;99.90
58554;DHT22;48119;53.218;6.576;2024-01-30T13:28:46;11.70;99.90
58554;DHT22;48119;53.218;6.576;2024-01-30T13:31:16;11.60;99.90
58554;DHT22;48119;53.218;6.576;2024-01-30T13:33:44;11.70;99.90
58554;DHT22;48119;53.218;6.576;2024-01-30T13:36:11;11.70;99.90
58554;DHT22;48119;53.218;6.576;2024-01-30T13:38:37;11.70;99.90
58554;DHT22;48119;53.218;6.576;2024-01-30T13:41:04;11.70;99.90
58554;DHT22;48119;53.218;6.576;2024-01-30T13:43:30;11.70;99.90
58554;DHT22;48119;53.218;6.576;2024-01-30T13:45:56;11.70;99.90
58554;DHT22;48119;53.218;6.576;2024-01-30T13:48:22;11.70;99.90
58554;DHT22;48119;53.218;6.576;2024-01-30T13:50:47;11.60;99.90
58554;DHT22;48119;53.218;6.576;2024-01-30T13:53:13;11.60;99.90
58554;DHT22;48119;53.218;6.576;2024-01-30T13:55:39;11.60;99.90
58554;DHT22;48119;53.218;6.576;2024-01-30T13:58:08;11.60;99.90
58554;DHT22;48119;53.218;6.576;2024-01-30T14:00:34;11.70;99.90
58554;DHT22;48119;53.218;6.576;2024-01-30T14:03:00;11.70;99.90
58554;DHT22;48119;53.218;6.576;2024-01-30T14:05:26;11.70;99.90
58554;DHT22;48119;53.218;6.576;2024-01-30T14:07:57;11.70;99.90
58554;DHT22;48119;53.218;6.576;2024-01-30T14:10:23;11.70;99.90
58554;DHT22;48119;53.218;6.576;2024-01-30T14:12:52;11.60;99.90
58554;DHT22;48119;53.218;6.576;2024-01-30T14:15:20;11.70;99.90
58554;DHT22;48119;53.218;6.576;2024-01-30T14:17:47;11.60;99.90
58554;DHT22;48119;53.218;6.576;2024-01-30T14:20:15;11.60;99.90
58554;DHT22;48119;53.218;6.576;2024-01-30T14:22:45;11.60;99.90
58554;DHT22;48119;53.218;6.576;2024-01-30T14:25:11;11.60;99.90
58554;DHT22;48119;53.218;6.576;2024-01-30T14:27:38;11.60;99.90
58554;DHT22;48119;53.218;6.576;2024-01-30T14:30:04;11.60;99.90
58554;DHT22;48119;53.218;6.576;2024-01-30T14:32:30;11.60;99.90
58554;DHT22;48119;53.218;6.576;2024-01-30T14:34:55;11.60;99.90
58554;DHT22;48119;53.218;6.576;2024-01-30T14:37:22;11.60;99.90
58554;DHT22;48119;53.218;6.576;2024-01-30T14:39:48;11.60;99.90
58554;DHT22;48119;53.218;6.576;2024-01-30T14:42:14;11.60;99.90
58554;DHT22;48119;53.218;6.576;2024-01-30T14:44:41;11.60;99.90
58554;DHT22;48119;53.218;6.576;2024-01-30T14:47:07;11.50;99.90
58554;DHT22;48119;53.218;6.576;2024-01-30T14:49:33;11.50;99.90
58554;DHT22;48119;53.218;6.576;2024-01-30T14:51:59;11.40;99.90
58554;DHT22;48119;53.218;6.576;2024-01-30T14:54:26;11.40;99.90
58554;DHT22;48119;53.218;6.576;2024-01-30T14:56:54;11.40;99.90
58554;DHT22;48119;53.218;6.576;2024-01-30T14:59:20;11.40;99.90
58554;DHT22;48119;53.218;6.576;2024-01-30T15:01:47;11.40;99.90
58554;DHT22;48119;53.218;6.576;2024-01-30T15:04:14;11.40;99.90
58554;DHT22;48119;53.218;6.576;2024-01-30T15:06:42;11.40;99.90
58554;DHT22;48119;53.218;6.576;2024-01-30T15:09:14;11.40;99.90
58554;DHT22;48119;53.218;6.576;2024-01-30T15:11:44;11.40;99.90
58554;DHT22;48119;53.218;6.576;2024-01-30T15:14:10;11.40;99.90
58554;DHT22;48119;53.218;6.576;2024-01-30T15:16:36;11.40;99.90
58554;DHT22;48119;53.218;6.576;2024-01-30T15:19:02;11.40;99.90
58554;DHT22;48119;53.218;6.576;2024-01-30T15:21:31;11.40;99.90
58554;DHT22;48119;53.218;6.576;2024-01-30T15:23:57;11.40;99.90
58554;DHT22;48119;53.218;6.576;2024-01-30T15:26:22;11.30;99.90